createdAt,value
2018-06-11T00:01:43.106Z,21.93
2018-06-11T00:04:11.995Z,22.63
2018-06-11T00:06:41.092Z,26.20
2018-06-11T00:09:09.895Z,25.73
2018-06-11T00:11:38.734Z,27.30
2018-06-11T00:14:07.628Z,23.60
2018-06-11T00:16:36.625Z,29.93
2018-06-11T00:19:05.909Z,32.00
2018-06-11T00:21:34.936Z,31.37
2018-06-11T00:24:03.716Z,30.93
2018-06-11T00:26:32.454Z,30.57
2018-06-11T00:29:01.452Z,29.03
2018-06-11T00:31:30.322Z,26.13
2018-06-11T00:33:59.146Z,26.80
2018-06-11T00:36:27.909Z,24.13
2018-06-11T00:38:56.824Z,23.43
2018-06-11T00:41:25.605Z,27.90
2018-06-11T00:43:54.494Z,27.40
2018-06-11T00:46:23.325Z,26.97
2018-06-11T00:48:52.190Z,25.63
2018-06-11T00:51:20.983Z,26.57
2018-06-11T00:53:49.775Z,28.00
2018-06-11T00:56:18.849Z,28.10
2018-06-11T00:58:47.661Z,42.80
2018-06-11T01:01:16.677Z,27.63
2018-06-11T01:03:45.422Z,27.87
2018-06-11T01:06:14.164Z,28.17
2018-06-11T01:08:43.342Z,26.20
2018-06-11T01:11:12.500Z,26.10
2018-06-11T01:13:41.435Z,31.80
2018-06-11T01:16:10.157Z,25.70
2018-06-11T01:18:39.030Z,28.30
2018-06-11T01:21:08.001Z,26.47
2018-06-11T01:23:36.797Z,29.93
2018-06-11T01:26:06.209Z,32.63
2018-06-11T01:28:35.030Z,30.03
2018-06-11T01:31:03.669Z,28.63
2018-06-11T01:33:32.555Z,28.67
2018-06-11T01:36:01.328Z,32.90
2018-06-11T01:38:30.044Z,31.70
2018-06-11T01:40:58.723Z,33.07
2018-06-11T01:43:27.444Z,35.27
2018-06-11T01:45:56.271Z,35.03
2018-06-11T01:48:25.054Z,34.03
2018-06-11T01:50:53.899Z,33.13
2018-06-11T01:53:22.851Z,29.93
2018-06-11T01:55:51.688Z,28.07
2018-06-11T01:58:20.461Z,34.03
2018-06-11T02:00:49.469Z,37.30
2018-06-11T02:03:18.471Z,35.97
2018-06-11T02:05:47.303Z,31.33
2018-06-11T02:08:16.340Z,31.77
2018-06-11T02:10:45.368Z,35.80
2018-06-11T02:13:14.237Z,31.93
2018-06-11T02:15:43.139Z,35.60
2018-06-11T02:18:12.036Z,36.93
2018-06-11T02:20:41.006Z,30.50
2018-06-11T02:23:09.845Z,31.07
2018-06-11T02:25:38.644Z,32.97
2018-06-11T02:28:07.488Z,38.37
2018-06-11T02:30:36.250Z,35.37
2018-06-11T02:33:05.119Z,34.37
2018-06-11T02:35:33.969Z,31.30
2018-06-11T02:38:02.926Z,34.57
2018-06-11T02:40:31.838Z,34.57
2018-06-11T02:43:00.657Z,34.03
2018-06-11T02:45:29.461Z,39.83
2018-06-11T02:47:58.307Z,38.47
2018-06-11T02:50:27.117Z,35.53
2018-06-11T02:52:56.018Z,34.13
2018-06-11T02:55:24.911Z,34.27
2018-06-11T02:57:53.789Z,34.17
2018-06-11T03:00:22.595Z,30.33
2018-06-11T03:02:51.453Z,32.00
2018-06-11T03:05:20.291Z,43.40
2018-06-11T03:07:49.303Z,32.30
2018-06-11T03:10:18.110Z,33.90
2018-06-11T03:12:47.549Z,38.90
2018-06-11T03:15:16.683Z,35.77
2018-06-11T03:17:45.464Z,31.17
2018-06-11T03:20:14.215Z,31.90
2018-06-11T03:22:42.971Z,36.77
2018-06-11T03:25:11.862Z,36.73
2018-06-11T03:27:40.699Z,38.40
2018-06-11T03:30:09.539Z,38.03
2018-06-11T03:32:38.553Z,33.83
2018-06-11T03:35:07.374Z,36.60
2018-06-11T03:37:36.449Z,35.37
2018-06-11T03:40:05.557Z,38.03
2018-06-11T03:42:34.393Z,37.67
2018-06-11T03:45:03.684Z,37.27
2018-06-11T03:47:32.801Z,35.67
2018-06-11T03:50:01.582Z,37.20
2018-06-11T03:52:30.381Z,35.00
2018-06-11T03:54:59.208Z,37.33
2018-06-11T03:57:28.144Z,37.80
2018-06-11T03:59:57.375Z,39.70
2018-06-11T04:02:26.242Z,35.07
2018-06-11T04:04:55.067Z,32.70
2018-06-11T04:07:23.842Z,40.23
2018-06-11T04:09:52.626Z,36.23
2018-06-11T04:12:21.494Z,41.60
2018-06-11T04:14:51.619Z,41.70
2018-06-11T04:17:20.535Z,37.00
2018-06-11T04:19:49.249Z,41.40
2018-06-11T04:22:19.327Z,35.13
2018-06-11T04:24:48.124Z,38.67
2018-06-11T04:27:16.907Z,32.60
2018-06-11T04:29:46.133Z,42.10
2018-06-11T04:32:15.140Z,40.60
2018-06-11T04:34:50.285Z,39.00
2018-06-11T04:37:19.178Z,43.13
2018-06-11T04:39:48.001Z,40.23
2018-06-11T04:42:16.754Z,43.87
2018-06-11T04:44:45.524Z,43.13
2018-06-11T04:47:14.180Z,44.90
2018-06-11T04:49:42.878Z,41.67
2018-06-11T04:52:11.657Z,44.07
2018-06-11T04:54:40.553Z,45.53
2018-06-11T04:57:09.510Z,44.63
2018-06-11T04:59:38.381Z,41.40
2018-06-11T05:02:07.235Z,43.10
2018-06-11T05:04:36.099Z,37.83
2018-06-11T05:07:05.075Z,43.57
2018-06-11T05:09:34.832Z,45.10
2018-06-11T05:12:03.779Z,43.30
2018-06-11T05:14:32.618Z,47.27
2018-06-11T05:17:06.579Z,43.47
2018-06-11T05:19:35.379Z,43.70
2018-06-11T05:44:56.635Z,47.93
2018-06-11T05:47:25.547Z,54.90
2018-06-11T05:49:57.860Z,55.43
2018-06-11T05:52:27.211Z,49.73
2018-06-11T05:54:56.211Z,53.80
2018-06-11T05:57:25.107Z,61.17
2018-06-11T05:59:53.938Z,60.20
2018-06-11T06:02:22.790Z,55.23
2018-06-11T06:04:51.546Z,50.17
2018-06-11T06:07:20.355Z,55.27
2018-06-11T06:09:49.252Z,63.33
2018-06-11T06:12:18.234Z,63.40
2018-06-11T06:14:46.967Z,53.53
2018-06-11T06:17:15.899Z,55.50
2018-06-11T06:19:44.661Z,57.03
2018-06-11T06:22:13.301Z,64.90
2018-06-11T06:24:42.173Z,62.07
2018-06-11T06:27:10.889Z,71.13
2018-06-11T06:29:39.569Z,62.73
2018-06-11T06:32:08.349Z,60.47
2018-06-11T06:34:37.308Z,56.80
2018-06-11T06:37:05.883Z,63.57
2018-06-11T06:39:34.590Z,55.20
2018-06-11T06:42:03.451Z,65.53
2018-06-11T06:44:32.511Z,55.37
2018-06-11T06:47:00.939Z,63.20
2018-06-11T06:49:29.712Z,62.73
2018-06-11T06:51:57.965Z,58.97
2018-06-11T06:54:26.749Z,56.00
2018-06-11T06:56:55.067Z,62.37
2018-06-11T06:59:23.409Z,65.97
2018-06-11T07:01:52.110Z,64.77
2018-06-11T07:04:20.807Z,67.90
2018-06-11T07:06:49.895Z,73.80
2018-06-11T07:09:18.599Z,62.17
2018-06-11T07:11:47.101Z,64.30
2018-06-11T07:14:16.066Z,69.67
2018-06-11T07:16:44.807Z,66.40
2018-06-11T07:19:13.522Z,71.97
2018-06-11T07:21:42.417Z,69.00
2018-06-11T07:24:11.411Z,66.97
2018-06-11T07:26:40.119Z,60.73
2018-06-11T07:29:08.862Z,71.70
2018-06-11T07:31:37.543Z,70.87
2018-06-11T07:34:06.611Z,75.20
2018-06-11T07:36:35.553Z,77.63
2018-06-11T07:39:05.861Z,69.67
2018-06-11T07:41:39.393Z,69.00
2018-06-11T07:44:08.145Z,59.67
2018-06-11T07:46:37.259Z,72.20
2018-06-11T07:49:06.482Z,71.07
2018-06-11T07:51:35.999Z,67.73
2018-06-11T07:54:04.888Z,63.10
2018-06-11T07:56:33.551Z,61.37
2018-06-11T07:59:02.981Z,66.40
2018-06-11T08:01:31.818Z,71.33
2018-06-11T08:04:00.603Z,66.67
2018-06-11T08:06:29.443Z,67.77
2018-06-11T08:08:59.354Z,57.87
2018-06-11T08:11:28.374Z,56.80
2018-06-11T08:13:57.073Z,55.40
2018-06-11T08:16:25.839Z,54.50
2018-06-11T08:18:54.538Z,61.27
2018-06-11T08:21:23.213Z,58.93
2018-06-11T08:23:51.913Z,57.07
2018-06-11T08:26:20.589Z,55.00
2018-06-11T08:28:49.623Z,61.97
2018-06-11T08:31:19.286Z,65.40
2018-06-11T08:33:48.080Z,59.33
2018-06-11T08:36:17.276Z,67.73
2018-06-11T08:38:46.038Z,64.03
2018-06-11T08:41:14.919Z,58.97
2018-06-11T08:43:43.671Z,59.53
2018-06-11T08:46:12.476Z,59.17
2018-06-11T08:48:41.165Z,64.87
2018-06-11T08:51:09.877Z,60.37
2018-06-11T08:53:38.638Z,56.07
2018-06-11T08:56:07.319Z,60.50
2018-06-11T08:58:36.029Z,55.40
2018-06-11T09:01:04.811Z,62.80
2018-06-11T09:03:33.573Z,70.37
2018-06-11T09:06:03.094Z,62.43
2018-06-11T09:08:31.866Z,65.37
2018-06-11T09:11:00.782Z,78.30
2018-06-11T09:13:29.582Z,64.43
2018-06-11T09:15:58.555Z,62.23
2018-06-11T09:18:27.531Z,60.27
2018-06-11T09:20:56.721Z,57.23
2018-06-11T09:23:25.402Z,54.27
2018-06-11T09:25:54.359Z,48.53
2018-06-11T09:28:23.148Z,52.73
2018-06-11T09:30:51.861Z,46.07
2018-06-11T09:33:20.847Z,54.93
2018-06-11T09:35:50.222Z,51.90
2018-06-11T09:38:18.961Z,59.77
2018-06-11T09:40:47.667Z,60.87
2018-06-11T09:43:16.362Z,47.80
2018-06-11T09:45:45.547Z,55.97
2018-06-11T09:48:14.386Z,58.63
2018-06-11T09:50:43.126Z,59.20
2018-06-11T09:53:11.896Z,52.73
2018-06-11T09:55:40.701Z,59.23
2018-06-11T09:58:09.680Z,51.20
2018-06-11T10:00:38.451Z,52.80
2018-06-11T10:03:07.230Z,56.07
2018-06-11T10:05:35.977Z,54.70
2018-06-11T10:08:05.037Z,49.43
2018-06-11T10:10:33.809Z,52.57
2018-06-11T10:13:02.456Z,50.93
2018-06-11T10:15:31.767Z,45.83
2018-06-11T10:18:00.567Z,45.90
2018-06-11T10:20:29.526Z,44.23
2018-06-11T10:22:58.305Z,49.90
2018-06-11T10:25:27.121Z,47.63
2018-06-11T10:27:56.495Z,39.20
2018-06-11T10:30:25.833Z,43.70
2018-06-11T10:32:54.668Z,42.37
2018-06-11T10:35:23.487Z,41.77
2018-06-11T10:37:52.243Z,34.70
2018-06-11T10:40:20.996Z,29.17
2018-06-11T10:42:50.764Z,28.60
2018-06-11T10:45:20.066Z,29.00
2018-06-11T10:47:49.597Z,27.77
2018-06-11T10:50:18.679Z,33.00
2018-06-11T10:52:47.413Z,29.50
2018-06-11T10:55:16.109Z,39.77
2018-06-11T10:57:44.868Z,28.63
2018-06-11T11:00:14.455Z,29.43
2018-06-11T11:02:43.706Z,26.80
2018-06-11T11:05:12.838Z,26.97
2018-06-11T11:07:41.510Z,26.00
2018-06-11T11:10:24.070Z,22.40
2018-06-11T11:12:52.745Z,23.47
2018-06-11T11:15:21.525Z,21.97
2018-06-11T11:17:50.218Z,23.20
2018-06-11T11:20:18.891Z,26.40
2018-06-11T11:22:47.809Z,25.90
2018-06-11T11:25:16.504Z,21.87
2018-06-11T11:27:45.229Z,21.83
2018-06-11T11:30:13.912Z,23.47
2018-06-11T11:32:42.657Z,27.90
2018-06-11T11:35:11.399Z,24.73
2018-06-11T11:37:40.062Z,23.57
2018-06-11T11:40:08.753Z,19.43
2018-06-11T11:42:37.705Z,28.90
2018-06-11T11:45:06.482Z,26.63
2018-06-11T11:47:35.715Z,20.97
2018-06-11T11:50:04.508Z,24.93
2018-06-11T11:52:33.106Z,29.00
2018-06-11T11:55:01.910Z,25.90
2018-06-11T11:57:30.698Z,24.77
2018-06-11T11:59:59.611Z,24.07
2018-06-11T12:02:28.494Z,25.73
2018-06-11T12:04:58.670Z,26.97
2018-06-11T12:07:27.306Z,24.70
2018-06-11T12:09:55.850Z,27.07
2018-06-11T12:12:24.752Z,26.80
2018-06-11T12:14:53.592Z,24.40
2018-06-11T12:17:22.389Z,22.63
2018-06-11T12:19:50.958Z,24.53
2018-06-11T12:22:19.454Z,25.53
2018-06-11T12:24:48.145Z,33.87
2018-06-11T12:27:17.426Z,31.20
2018-06-11T12:29:55.295Z,26.93
2018-06-11T12:32:24.078Z,30.10
2018-06-11T12:34:52.818Z,28.17
2018-06-11T12:37:21.734Z,29.93
2018-06-11T12:39:50.586Z,30.37
2018-06-11T12:42:19.515Z,27.00
2018-06-11T12:44:48.347Z,22.20
2018-06-11T12:47:17.187Z,27.03
2018-06-11T12:49:45.770Z,27.40
2018-06-11T12:52:14.320Z,29.07
2018-06-11T12:54:43.033Z,24.07
2018-06-11T12:57:11.746Z,29.30
2018-06-11T12:59:41.074Z,22.40
2018-06-11T13:02:10.538Z,24.90
2018-06-11T13:04:39.324Z,20.27
2018-06-11T13:07:08.098Z,20.37
2018-06-11T13:09:36.861Z,23.43
2018-06-11T13:12:05.937Z,22.53
2018-06-11T13:14:34.958Z,24.07
2018-06-11T13:17:04.101Z,23.20
2018-06-11T13:19:32.943Z,20.83
2018-06-11T13:22:01.814Z,21.23
2018-06-11T13:24:30.526Z,20.53
2018-06-11T13:26:59.328Z,26.40
2018-06-11T13:29:28.477Z,17.80
2018-06-11T13:31:57.185Z,22.07
2018-06-11T13:34:26.994Z,23.20
2018-06-11T13:36:55.729Z,26.80
2018-06-11T13:39:24.651Z,20.73
2018-06-11T13:41:53.321Z,20.67
2018-06-11T13:44:25.642Z,22.30
2018-06-11T13:46:58.135Z,20.07
2018-06-11T13:49:26.854Z,23.87
2018-06-11T13:51:55.767Z,23.80
2018-06-11T13:54:25.266Z,20.77
2018-06-11T13:56:54.811Z,22.00
2018-06-11T13:59:24.197Z,28.23
2018-06-11T14:01:53.111Z,25.73
2018-06-11T14:04:21.712Z,25.60
2018-06-11T14:06:51.630Z,34.70
2018-06-11T14:09:20.634Z,28.67
2018-06-11T14:11:51.209Z,33.30
2018-06-11T14:14:19.978Z,29.07
2018-06-11T14:16:48.842Z,26.73
2018-06-11T14:19:21.198Z,24.50
2018-06-11T14:21:49.980Z,26.13
2018-06-11T14:24:19.019Z,34.00
2018-06-11T14:26:47.708Z,37.43
2018-06-11T14:29:16.536Z,36.33
2018-06-11T14:31:45.390Z,30.17
2018-06-11T14:34:15.301Z,31.50
2018-06-11T14:36:44.171Z,31.03
2018-06-11T14:39:12.901Z,34.40
2018-06-11T14:41:41.537Z,29.00
2018-06-11T14:44:10.439Z,29.40
2018-06-11T14:46:39.892Z,37.27
2018-06-11T14:49:08.611Z,35.43
2018-06-11T14:51:37.414Z,32.90
2018-06-11T14:54:05.972Z,31.67
2018-06-11T14:56:34.917Z,38.50
2018-06-11T14:59:03.516Z,31.03
2018-06-11T15:01:32.263Z,28.20
2018-06-11T15:04:00.789Z,30.60
2018-06-11T15:06:29.531Z,33.40
2018-06-11T15:08:58.338Z,32.77
2018-06-11T15:11:45.244Z,30.60
2018-06-11T15:14:13.985Z,38.13
2018-06-11T15:16:42.622Z,34.27
2018-06-11T15:19:11.305Z,25.97
2018-06-11T15:21:40.018Z,30.60
2018-06-11T15:24:08.590Z,29.43
2018-06-11T15:26:37.393Z,25.83
2018-06-11T15:29:06.468Z,36.37
2018-06-11T15:31:35.272Z,31.77
2018-06-11T15:34:04.156Z,27.27
2018-06-11T15:36:32.758Z,28.63
2018-06-11T15:39:01.578Z,23.70
2018-06-11T15:41:31.350Z,24.47
2018-06-11T15:44:00.147Z,25.00
2018-06-11T15:46:28.831Z,27.10
2018-06-11T15:48:57.804Z,27.47
2018-06-11T15:51:26.777Z,30.60
2018-06-11T15:53:55.580Z,23.20
2018-06-11T15:56:24.374Z,26.20
2018-06-11T15:58:53.196Z,26.30
2018-06-11T16:01:21.803Z,23.83
2018-06-11T16:03:50.718Z,20.93
2018-06-11T16:06:19.513Z,21.00
2018-06-11T16:08:48.335Z,21.13
2018-06-11T16:11:17.080Z,18.77
2018-06-11T16:13:45.681Z,22.23
2018-06-11T16:16:14.470Z,18.23
2018-06-11T16:18:43.829Z,17.43
2018-06-11T16:21:12.508Z,19.63
2018-06-11T16:23:41.242Z,22.53
2018-06-11T16:26:10.257Z,21.00
2018-06-11T16:28:38.965Z,23.30
2018-06-11T16:31:07.590Z,18.20
2018-06-11T16:33:36.396Z,19.30
2018-06-11T16:36:05.407Z,19.10
2018-06-11T16:38:34.385Z,22.10
2018-06-11T16:41:03.507Z,22.40
2018-06-11T16:43:32.332Z,21.70
2018-06-11T16:46:01.333Z,21.87
2018-06-11T16:48:30.123Z,18.33
2018-06-11T16:50:59.101Z,19.37
2018-06-11T16:53:28.046Z,18.93
2018-06-11T16:55:56.994Z,19.10
2018-06-11T16:58:26.105Z,19.13
2018-06-11T17:00:55.022Z,17.23
2018-06-11T17:03:23.919Z,16.73
2018-06-11T17:05:52.676Z,15.97
2018-06-11T17:08:21.452Z,14.80
2018-06-11T17:10:50.661Z,13.60
2018-06-11T17:13:20.552Z,15.30
2018-06-11T17:15:49.523Z,17.03
2018-06-11T17:18:18.655Z,15.00
2018-06-11T17:20:47.691Z,12.27
2018-06-11T17:23:18.319Z,16.40
2018-06-11T17:25:49.187Z,16.10
2018-06-11T17:33:57.740Z,15.63
2018-06-11T17:36:26.705Z,18.27
2018-06-11T17:38:55.656Z,18.47
2018-06-11T17:41:24.567Z,15.97
2018-06-11T17:43:58.083Z,16.83
2018-06-11T17:46:27.187Z,13.20
2018-06-11T17:48:56.038Z,16.70
2018-06-11T17:51:44.286Z,15.20
2018-06-11T17:54:13.282Z,15.53
2018-06-11T17:56:42.322Z,16.00
2018-06-11T17:59:11.495Z,14.83
2018-06-11T18:01:41.123Z,15.77
2018-06-11T18:04:10.029Z,15.97
2018-06-11T18:06:39.419Z,14.50
2018-06-11T18:09:09.237Z,16.17
2018-06-11T18:11:38.327Z,29.17
2018-06-11T18:14:07.201Z,17.10
2018-06-11T18:16:36.073Z,19.40
2018-06-11T18:19:07.057Z,21.03
2018-06-11T18:21:36.290Z,15.17
2018-06-11T18:24:05.533Z,20.00
2018-06-11T18:26:34.461Z,17.33
2018-06-11T18:29:03.350Z,16.57
2018-06-11T18:31:32.165Z,18.00
2018-06-11T18:34:00.960Z,18.77
2018-06-11T18:36:29.822Z,19.87
2018-06-11T18:38:58.611Z,21.63
2018-06-11T18:41:27.641Z,18.17
2018-06-11T18:43:56.599Z,17.50
2018-06-11T18:46:25.416Z,20.30
2018-06-11T18:48:54.238Z,21.90
2018-06-11T18:51:23.077Z,21.57
2018-06-11T18:53:51.838Z,18.50
2018-06-11T18:56:20.660Z,20.53
2018-06-11T18:58:49.483Z,18.17
2018-06-11T19:01:17.964Z,18.50
2018-06-11T19:04:14.281Z,22.47
2018-06-11T19:06:43.022Z,21.50
2018-06-11T19:09:11.918Z,20.97
2018-06-11T19:11:40.855Z,18.43
2018-06-11T19:14:10.122Z,20.60
2018-06-11T19:16:38.916Z,17.60
2018-06-11T19:19:07.659Z,20.00
2018-06-11T19:21:36.775Z,21.97
2018-06-11T19:24:05.636Z,20.07
2018-06-11T19:26:34.666Z,19.77
2018-06-11T19:29:03.569Z,21.37
2018-06-11T19:31:32.304Z,16.33
2018-06-11T19:34:01.054Z,24.73
2018-06-11T19:36:29.899Z,19.97
2018-06-11T19:38:58.785Z,20.47
2018-06-11T19:41:27.604Z,17.30
2018-06-11T19:43:56.630Z,21.87
2018-06-11T19:46:25.475Z,15.10
2018-06-11T19:48:56.004Z,17.90
2018-06-11T19:51:24.838Z,18.67
2018-06-11T19:53:53.649Z,15.13
2018-06-11T19:56:22.584Z,14.47
2018-06-11T19:58:51.501Z,16.50
2018-06-11T20:01:20.291Z,15.93
2018-06-11T20:03:49.062Z,16.00
2018-06-11T20:06:17.873Z,14.43
2018-06-11T20:11:48.463Z,12.27
2018-06-11T20:14:17.822Z,15.63
2018-06-11T20:16:47.179Z,15.17
2018-06-11T20:19:16.447Z,15.70
2018-06-11T20:21:47.938Z,19.60
2018-06-11T20:24:17.502Z,13.30
2018-06-11T20:26:50.314Z,22.60
2018-06-11T20:29:19.221Z,13.60
2018-06-11T20:31:48.336Z,13.77
2018-06-11T20:34:21.451Z,13.97
2018-06-11T20:36:51.087Z,15.90
2018-06-11T20:39:30.324Z,12.23
2018-06-11T20:45:09.430Z,15.33
2018-06-11T20:47:49.109Z,15.90
2018-06-11T20:50:18.005Z,18.70
2018-06-11T20:52:47.013Z,15.90
2018-06-11T20:55:15.872Z,17.13
2018-06-11T20:57:45.311Z,15.80
2018-06-11T21:00:17.840Z,13.60
2018-06-11T21:02:46.764Z,13.30
2018-06-11T21:05:15.663Z,17.57
2018-06-11T21:07:49.857Z,15.13
2018-06-11T21:13:21.715Z,19.03
2018-06-11T21:15:50.511Z,11.83
2018-06-11T21:18:19.742Z,12.87
2018-06-11T21:20:59.986Z,18.67
2018-06-11T21:23:29.002Z,14.00
2018-06-11T21:25:57.889Z,13.60
2018-06-11T21:28:41.918Z,16.37
2018-06-11T21:31:10.842Z,19.07
2018-06-11T21:33:39.672Z,14.30
2018-06-11T21:36:08.890Z,14.60
2018-06-11T21:38:37.777Z,13.93
2018-06-11T21:41:07.985Z,13.60
2018-06-11T21:43:36.813Z,13.37
2018-06-11T21:46:06.868Z,13.00
2018-06-11T21:48:35.755Z,15.10
2018-06-11T21:51:04.843Z,13.70
2018-06-11T21:53:33.692Z,16.27
2018-06-11T21:56:02.515Z,13.70
2018-06-11T21:58:31.400Z,16.00
2018-06-11T22:01:00.330Z,16.80
2018-06-11T22:03:29.237Z,16.27
2018-06-11T22:05:58.214Z,12.73
2018-06-11T22:08:27.098Z,15.77
2018-06-11T22:10:56.020Z,14.37
2018-06-11T22:13:25.037Z,16.13
2018-06-11T22:15:54.105Z,17.53
2018-06-11T22:18:30.295Z,14.03
2018-06-11T22:21:04.255Z,18.03
2018-06-11T22:23:33.057Z,14.90
2018-06-11T22:26:01.943Z,15.60
2018-06-11T22:28:31.151Z,17.33
2018-06-11T22:31:01.410Z,18.40
2018-06-11T22:33:30.322Z,16.80
2018-06-11T22:35:59.164Z,15.90
2018-06-11T22:38:27.976Z,16.87
2018-06-11T22:40:56.803Z,20.10
2018-06-11T22:43:25.730Z,13.83
2018-06-11T22:45:55.453Z,15.63
2018-06-11T22:48:30.299Z,16.43
2018-06-11T22:50:59.830Z,14.67
2018-06-11T22:53:30.552Z,17.13
2018-06-11T22:55:59.502Z,16.33
2018-06-11T22:58:28.346Z,15.73
2018-06-11T23:00:57.252Z,15.33
2018-06-11T23:03:26.814Z,15.27
2018-06-11T23:05:56.130Z,16.07
2018-06-11T23:08:25.714Z,19.97
2018-06-11T23:10:54.657Z,15.80
2018-06-11T23:13:23.508Z,17.40
2018-06-11T23:15:53.988Z,16.93
2018-06-11T23:18:23.131Z,16.30
2018-06-11T23:20:53.017Z,21.63
2018-06-11T23:23:22.358Z,16.33
2018-06-11T23:25:51.716Z,23.80
2018-06-11T23:28:20.578Z,15.10
2018-06-11T23:30:49.427Z,18.67
2018-06-11T23:33:18.242Z,18.33
2018-06-11T23:35:47.170Z,18.97
2018-06-11T23:38:16.033Z,15.90
2018-06-11T23:40:44.898Z,15.97
2018-06-11T23:43:13.891Z,20.30
2018-06-11T23:45:43.094Z,19.33
2018-06-11T23:48:12.016Z,19.30
2018-06-11T23:50:40.774Z,15.63
2018-06-11T23:53:09.914Z,17.60
2018-06-11T23:55:38.843Z,20.30
2018-06-11T23:58:07.974Z,18.93
